createdAt,value
2019-04-29T00:00:14.528Z,59.20
2019-04-29T00:02:43.932Z,59.30
2019-04-29T00:05:14.102Z,59.30
2019-04-29T00:07:43.685Z,59.30
2019-04-29T00:10:16.212Z,59.40
2019-04-29T00:12:47.549Z,59.40
2019-04-29T00:15:26.833Z,59.50
2019-04-29T00:17:59.983Z,59.50
2019-04-29T00:20:41.939Z,59.60
2019-04-29T00:23:11.178Z,59.60
2019-04-29T00:25:40.538Z,59.70
2019-04-29T00:28:09.828Z,59.70
2019-04-29T00:30:39.156Z,59.70
2019-04-29T00:33:08.424Z,59.80
2019-04-29T00:35:38.015Z,59.80
2019-04-29T00:38:43.484Z,59.80
2019-04-29T00:41:30.648Z,59.80
2019-04-29T00:44:05.462Z,59.80
2019-04-29T00:46:34.703Z,59.70
2019-04-29T00:49:05.147Z,59.80
2019-04-29T00:51:34.534Z,60.00
2019-04-29T00:54:16.389Z,60.10
2019-04-29T00:56:45.639Z,60.10
2019-04-29T00:59:14.950Z,60.10
2019-04-29T01:01:44.281Z,60.10
2019-04-29T01:04:14.824Z,60.20
2019-04-29T01:06:44.085Z,60.30
2019-04-29T01:09:15.237Z,60.40
2019-04-29T01:11:46.463Z,60.40
2019-04-29T01:14:15.763Z,60.50
2019-04-29T01:16:45.063Z,60.50
2019-04-29T01:19:14.561Z,60.60
2019-04-29T01:21:43.825Z,60.60
2019-04-29T01:24:13.044Z,60.70
2019-04-29T01:27:10.655Z,60.70
2019-04-29T01:29:40.215Z,60.80
2019-04-29T01:32:09.499Z,60.80
2019-04-29T01:34:50.949Z,60.70
2019-04-29T01:37:20.258Z,60.70
2019-04-29T01:40:00.035Z,60.70
2019-04-29T01:42:36.208Z,60.80
2019-04-29T01:45:05.680Z,60.90
2019-04-29T01:47:35.074Z,61.00
2019-04-29T01:50:04.746Z,60.90
2019-04-29T01:52:34.070Z,61.00
2019-04-29T01:55:03.348Z,61.00
2019-04-29T01:57:32.525Z,61.00
2019-04-29T02:00:20.884Z,61.00
2019-04-29T02:02:50.230Z,60.90
2019-04-29T02:05:19.419Z,61.10
2019-04-29T02:07:48.662Z,61.10
2019-04-29T02:10:36.232Z,60.90
2019-04-29T02:13:05.394Z,60.90
2019-04-29T02:15:34.713Z,60.90
2019-04-29T02:18:04.028Z,61.00
2019-04-29T02:20:33.269Z,61.10
2019-04-29T02:23:26.514Z,60.90
2019-04-29T02:26:01.595Z,60.90
2019-04-29T02:28:30.943Z,60.80
2019-04-29T02:31:19.262Z,60.90
2019-04-29T02:33:48.642Z,61.00
2019-04-29T02:36:17.946Z,60.90
2019-04-29T02:38:55.012Z,61.70
2019-04-29T02:41:53.364Z,60.90
2019-04-29T02:44:23.564Z,60.90
2019-04-29T02:46:52.823Z,60.90
2019-04-29T02:49:22.063Z,61.00
2019-04-29T02:51:53.986Z,61.00
2019-04-29T02:54:24.759Z,61.00
2019-04-29T02:57:00.700Z,61.10
2019-04-29T02:59:34.232Z,61.10
2019-04-29T03:02:25.363Z,61.00
2019-04-29T03:05:16.382Z,61.10
2019-04-29T03:07:45.625Z,61.30
2019-04-29T03:10:14.851Z,61.10
2019-04-29T03:12:44.230Z,61.30
2019-04-29T03:15:15.246Z,61.40
2019-04-29T03:17:44.429Z,61.40
2019-04-29T03:20:28.329Z,61.50
2019-04-29T03:23:11.401Z,61.50
2019-04-29T03:25:40.575Z,61.50
2019-04-29T03:28:09.894Z,61.70
2019-04-29T03:30:39.221Z,61.70
2019-04-29T03:33:08.517Z,61.70
2019-04-29T03:35:37.884Z,61.70
2019-04-29T03:38:07.294Z,61.80
2019-04-29T03:40:36.554Z,61.80
2019-04-29T03:43:05.867Z,62.00
2019-04-29T03:45:35.224Z,62.10
2019-04-29T03:48:04.556Z,62.20
2019-04-29T03:50:34.005Z,62.30
2019-04-29T03:53:03.347Z,62.30
2019-04-29T03:55:39.622Z,62.20
2019-04-29T03:58:03.602Z,62.30
2019-04-29T04:00:33.000Z,62.30
2019-04-29T04:03:21.422Z,62.30
2019-04-29T04:06:12.946Z,62.20
2019-04-29T04:08:45.236Z,62.20
2019-04-29T04:11:14.550Z,62.20
2019-04-29T04:13:43.727Z,62.20
2019-04-29T04:16:19.920Z,62.50
2019-04-29T04:18:49.229Z,62.30
2019-04-29T04:21:18.630Z,62.40
2019-04-29T04:23:48.019Z,62.40
2019-04-29T04:26:17.539Z,62.60
2019-04-29T04:28:46.950Z,62.50
2019-04-29T04:31:16.846Z,62.60
2019-04-29T04:33:46.193Z,62.80
2019-04-29T04:36:15.551Z,62.90
2019-04-29T04:38:44.861Z,63.10
2019-04-29T04:41:14.551Z,63.00
2019-04-29T04:43:43.953Z,63.00
2019-04-29T04:46:14.514Z,63.20
2019-04-29T04:48:43.863Z,63.20
2019-04-29T04:51:13.231Z,63.20
2019-04-29T04:53:42.709Z,63.10
2019-04-29T04:56:12.048Z,63.20
2019-04-29T04:58:41.527Z,63.30
2019-04-29T05:01:11.082Z,63.40
2019-04-29T05:03:40.465Z,63.40
2019-04-29T05:06:09.773Z,63.60
2019-04-29T05:08:39.279Z,63.60
2019-04-29T05:11:08.845Z,63.60
2019-04-29T05:13:38.284Z,63.60
2019-04-29T05:16:07.688Z,63.60
2019-04-29T05:18:37.313Z,63.60
2019-04-29T05:21:06.769Z,63.80
2019-04-29T05:23:36.169Z,63.90
2019-04-29T05:26:06.699Z,63.90
2019-04-29T05:28:36.232Z,64.90
2019-04-29T05:31:26.792Z,64.80
2019-04-29T05:33:56.332Z,64.70
2019-04-29T05:36:38.196Z,64.60
2019-04-29T05:39:18.346Z,64.60
2019-04-29T05:41:47.795Z,64.70
2019-04-29T05:44:30.161Z,64.80
2019-04-29T05:47:04.160Z,65.10
2019-04-29T05:49:47.144Z,65.30
2019-04-29T05:52:30.338Z,65.60
2019-04-29T05:55:02.055Z,65.90
2019-04-29T05:57:31.500Z,66.10
2019-04-29T06:00:00.806Z,66.30
2019-04-29T06:02:33.237Z,66.50
2019-04-29T06:05:03.299Z,66.70
2019-04-29T06:07:33.963Z,66.90
2019-04-29T06:10:05.654Z,67.40
2019-04-29T06:12:35.563Z,67.50
2019-04-29T06:15:05.274Z,67.70
2019-04-29T06:17:34.850Z,67.70
2019-04-29T06:20:04.512Z,67.90
2019-04-29T06:22:37.759Z,67.90
2019-04-29T06:25:05.647Z,68.10
2019-04-29T06:27:38.027Z,68.20
2019-04-29T06:30:09.239Z,68.30
2019-04-29T06:32:38.678Z,68.50
2019-04-29T06:35:10.709Z,68.70
2019-04-29T06:37:48.517Z,68.70
2019-04-29T06:40:17.915Z,68.90
2019-04-29T06:42:49.384Z,69.00
2019-04-29T06:45:18.541Z,69.20
2019-04-29T06:47:50.036Z,69.40
2019-04-29T06:53:31.889Z,69.60
2019-04-29T06:56:01.232Z,69.70
2019-04-29T06:58:32.532Z,69.80
2019-04-29T07:01:03.141Z,69.90
2019-04-29T07:03:32.869Z,70.20
2019-04-29T07:06:02.311Z,70.40
2019-04-29T07:08:31.787Z,70.60
2019-04-29T07:11:02.867Z,70.80
2019-04-29T07:13:32.009Z,71.00
2019-04-29T07:16:01.345Z,71.10
2019-04-29T07:18:30.763Z,71.30
2019-04-29T07:21:00.102Z,71.40
2019-04-29T07:23:29.671Z,71.70
2019-04-29T07:25:58.903Z,71.90
2019-04-29T07:28:28.328Z,71.90
2019-04-29T07:31:02.656Z,72.00
2019-04-29T07:33:28.796Z,72.20
2019-04-29T07:36:10.368Z,72.30
2019-04-29T07:38:40.574Z,72.50
2019-04-29T07:41:00.408Z,72.70
2019-04-29T07:43:29.949Z,72.90
2019-04-29T07:46:05.537Z,73.10
2019-04-29T07:48:36.801Z,73.30
2019-04-29T07:51:06.067Z,73.60
2019-04-29T07:53:44.708Z,73.70
2019-04-29T07:56:08.096Z,73.70
2019-04-29T07:58:37.741Z,73.70
2019-04-29T08:01:07.212Z,73.90
2019-04-29T08:03:36.718Z,73.90
2019-04-29T08:06:05.889Z,74.10
2019-04-29T08:08:35.528Z,74.20
2019-04-29T08:11:04.743Z,74.20
2019-04-29T08:13:34.414Z,74.40
2019-04-29T08:16:03.697Z,74.80
2019-04-29T08:18:33.302Z,75.10
2019-04-29T08:21:02.519Z,75.70
2019-04-29T08:23:33.065Z,76.20
2019-04-29T08:26:04.482Z,76.40
2019-04-29T08:28:33.903Z,76.70
2019-04-29T08:31:03.215Z,76.90
2019-04-29T08:33:32.545Z,77.20
2019-04-29T08:36:01.805Z,77.60
2019-04-29T08:38:31.013Z,77.90
2019-04-29T08:41:00.417Z,78.60
2019-04-29T08:43:52.456Z,79.00
2019-04-29T08:46:29.691Z,79.40
2019-04-29T08:49:01.102Z,79.60
2019-04-29T08:51:31.584Z,79.90
2019-04-29T08:54:01.414Z,80.10
2019-04-29T08:56:32.591Z,79.90
2019-04-29T08:59:01.931Z,80.10
2019-04-29T09:01:34.041Z,80.80
2019-04-29T09:06:57.097Z,80.90
2019-04-29T09:09:31.513Z,80.70
2019-04-29T09:12:01.257Z,80.80
2019-04-29T09:14:31.617Z,80.90
2019-04-29T09:17:04.765Z,80.90
2019-04-29T09:19:39.954Z,81.20
2019-04-29T09:22:11.684Z,81.40
2019-04-29T09:24:48.123Z,81.50
2019-04-29T09:27:19.996Z,81.50
2019-04-29T09:29:50.180Z,81.60
2019-04-29T09:32:21.076Z,81.60
2019-04-29T09:34:50.852Z,81.80
2019-04-29T09:37:22.816Z,82.00
2019-04-29T09:39:52.394Z,82.00
2019-04-29T09:42:45.516Z,82.30
2019-04-29T09:45:28.576Z,82.30
2019-04-29T09:47:58.598Z,82.60
2019-04-29T09:50:28.551Z,82.50
2019-04-29T09:52:57.986Z,82.50
2019-04-29T09:55:27.288Z,82.70
2019-04-29T09:58:02.626Z,82.90
2019-04-29T10:00:48.998Z,83.00
2019-04-29T10:03:26.236Z,82.60
2019-04-29T10:06:23.852Z,82.80
2019-04-29T10:08:53.328Z,82.80
2019-04-29T10:11:23.711Z,82.90
2019-04-29T10:13:53.466Z,83.00
2019-04-29T10:16:51.393Z,83.20
2019-04-29T10:19:35.073Z,83.50
2019-04-29T10:22:04.453Z,83.80
2019-04-29T10:24:33.715Z,84.10
2019-04-29T10:27:03.022Z,84.40
2019-04-29T10:29:33.015Z,84.60
2019-04-29T10:32:06.961Z,85.00
2019-04-29T10:34:34.011Z,85.40
2019-04-29T10:37:03.266Z,85.70
2019-04-29T10:39:55.768Z,85.80
2019-04-29T10:42:29.960Z,85.80
2019-04-29T10:45:24.706Z,85.50
2019-04-29T10:48:03.319Z,85.60
2019-04-29T10:50:35.523Z,85.80
2019-04-29T10:53:06.180Z,86.10
2019-04-29T10:55:36.318Z,86.00
2019-04-29T10:58:06.411Z,85.70
2019-04-29T11:01:14.728Z,85.80
2019-04-29T11:03:47.016Z,85.90
2019-04-29T11:06:16.719Z,86.10
2019-04-29T11:08:51.582Z,86.00
2019-04-29T11:11:24.117Z,86.00
2019-04-29T11:13:52.619Z,86.10
2019-04-29T11:16:22.974Z,86.20
2019-04-29T11:18:55.144Z,86.80
2019-04-29T11:21:25.061Z,86.20
2019-04-29T11:24:05.186Z,85.90
2019-04-29T11:26:46.389Z,85.90
2019-04-29T11:29:15.650Z,86.20
2019-04-29T11:31:49.127Z,86.10
2019-04-29T11:34:25.832Z,86.40
2019-04-29T11:36:55.360Z,86.50
2019-04-29T11:39:24.990Z,86.60
2019-04-29T11:41:59.488Z,86.50
2019-04-29T11:44:26.647Z,86.70
2019-04-29T11:46:57.676Z,86.70
2019-04-29T11:49:35.656Z,86.70
2019-04-29T11:52:09.805Z,86.70
2019-04-29T11:54:38.654Z,86.50
2019-04-29T11:57:10.102Z,86.40
2019-04-29T12:00:03.262Z,86.50
2019-04-29T12:03:00.762Z,86.60
2019-04-29T12:05:40.121Z,86.60
2019-04-29T12:08:16.023Z,86.40
2019-04-29T12:10:48.533Z,86.40
2019-04-29T12:13:19.050Z,86.30
2019-04-29T12:16:19.621Z,86.10
2019-04-29T12:18:52.411Z,86.20
2019-04-29T12:21:30.507Z,86.30
2019-04-29T12:24:02.222Z,86.40
2019-04-29T12:26:35.584Z,86.40
2019-04-29T12:29:02.348Z,86.50
2019-04-29T12:31:51.113Z,86.70
2019-04-29T12:34:32.987Z,86.90
2019-04-29T12:37:03.332Z,86.70
2019-04-29T12:40:09.838Z,86.80
2019-04-29T12:42:56.312Z,86.70
2019-04-29T12:45:47.691Z,86.80
2019-04-29T12:48:24.265Z,86.90
2019-04-29T12:50:51.106Z,87.10
2019-04-29T12:53:20.273Z,87.30
2019-04-29T12:55:53.504Z,87.60
2019-04-29T12:58:24.204Z,87.80
2019-04-29T13:00:59.761Z,87.80
2019-04-29T13:03:41.042Z,87.80
2019-04-29T13:06:39.185Z,88.00
2019-04-29T13:09:17.574Z,87.90
2019-04-29T13:11:48.767Z,88.10
2019-04-29T13:14:16.887Z,88.10
2019-04-29T13:17:18.615Z,87.80
2019-04-29T13:20:02.032Z,88.00
2019-04-29T13:22:30.134Z,87.90
2019-04-29T13:25:03.034Z,88.80
2019-04-29T13:27:32.997Z,88.60
2019-04-29T13:30:14.912Z,88.40
2019-04-29T13:32:39.748Z,88.40
2019-04-29T13:35:15.732Z,88.60
2019-04-29T13:37:46.397Z,89.00
2019-04-29T13:40:16.265Z,88.00
2019-04-29T13:42:49.254Z,88.40
2019-04-29T13:45:24.982Z,88.50
2019-04-29T13:48:17.091Z,88.80
2019-04-29T13:50:51.556Z,88.90
2019-04-29T13:53:31.527Z,88.50
2019-04-29T13:56:32.722Z,88.30
2019-04-29T13:58:50.803Z,88.30
2019-04-29T14:01:58.650Z,88.40
2019-04-29T14:04:31.873Z,88.60
2019-04-29T14:07:03.023Z,88.60
2019-04-29T14:09:35.165Z,88.90
2019-04-29T14:12:42.344Z,88.90
2019-04-29T14:17:25.358Z,88.60
2019-04-29T14:19:42.763Z,88.80
2019-04-29T14:22:22.060Z,88.80
2019-04-29T14:24:46.713Z,88.60
2019-04-29T14:27:24.919Z,88.80
2019-04-29T14:29:53.862Z,88.80
2019-04-29T14:32:34.671Z,89.30
2019-04-29T14:37:25.174Z,89.20
2019-04-29T14:39:54.469Z,89.20
2019-04-29T14:42:58.157Z,89.10
2019-04-29T14:45:48.649Z,89.20
2019-04-29T14:48:47.106Z,89.30
2019-04-29T14:51:16.622Z,89.40
2019-04-29T14:53:56.128Z,89.30
2019-04-29T14:56:17.187Z,89.30
2019-04-29T14:58:46.581Z,89.30
2019-04-29T15:01:30.803Z,89.50
2019-04-29T15:04:16.961Z,89.30
2019-04-29T15:06:33.383Z,89.50
2019-04-29T15:09:02.709Z,89.50
2019-04-29T15:11:45.326Z,89.50
2019-04-29T15:14:28.847Z,89.60
2019-04-29T15:17:06.094Z,89.50
2019-04-29T15:19:55.501Z,89.50
2019-04-29T15:22:24.911Z,89.60
2019-04-29T15:24:54.160Z,89.80
2019-04-29T15:27:23.458Z,89.70
2019-04-29T15:29:52.905Z,89.80
2019-04-29T15:32:23.787Z,89.80
2019-04-29T15:34:53.183Z,89.90
2019-04-29T15:37:22.611Z,89.90
2019-04-29T15:39:51.926Z,89.70
2019-04-29T15:42:21.275Z,89.90
2019-04-29T15:44:51.534Z,89.90
2019-04-29T15:47:21.807Z,89.70
2019-04-29T15:49:55.824Z,89.60
2019-04-29T15:52:25.841Z,89.50
2019-04-29T15:54:55.623Z,89.60
2019-04-29T15:57:25.093Z,90.10
2019-04-29T15:59:59.767Z,89.70
2019-04-29T16:02:26.216Z,89.60
2019-04-29T16:05:09.261Z,89.90
2019-04-29T16:08:07.714Z,89.80
2019-04-29T16:11:01.859Z,89.80
2019-04-29T16:13:31.896Z,89.70
2019-04-29T16:16:01.176Z,89.60
2019-04-29T16:18:30.491Z,89.60
2019-04-29T16:20:59.792Z,89.60
2019-04-29T16:23:32.950Z,89.70
2019-04-29T16:26:00.014Z,89.70
2019-04-29T16:28:31.586Z,89.70
2019-04-29T16:31:05.017Z,89.70
2019-04-29T16:33:31.972Z,90.00
2019-04-29T16:36:04.980Z,89.90
2019-04-29T16:38:32.334Z,90.00
2019-04-29T16:41:19.448Z,89.90
2019-04-29T16:43:49.467Z,89.80
2019-04-29T16:46:23.417Z,89.80
2019-04-29T16:48:53.139Z,89.90
2019-04-29T16:51:22.378Z,90.00
2019-04-29T16:53:51.744Z,90.00
2019-04-29T16:56:21.024Z,90.00
2019-04-29T16:58:50.740Z,89.90
2019-04-29T17:01:20.510Z,90.00
2019-04-29T17:03:53.965Z,90.00
2019-04-29T17:06:23.705Z,90.00
2019-04-29T17:09:12.410Z,90.00
2019-04-29T17:11:41.986Z,90.00
2019-04-29T17:14:12.981Z,89.80
2019-04-29T17:16:42.454Z,89.80
2019-04-29T17:19:11.824Z,90.00
2019-04-29T17:21:41.190Z,90.00
2019-04-29T17:24:10.543Z,90.10
2019-04-29T17:27:07.949Z,90.10
2019-04-29T17:30:11.700Z,90.10
2019-04-29T17:32:58.275Z,90.10
2019-04-29T17:35:30.263Z,90.00
2019-04-29T17:38:11.598Z,90.10
2019-04-29T17:40:57.561Z,90.40
2019-04-29T17:43:46.940Z,90.10
2019-04-29T17:46:34.103Z,89.90
2019-04-29T17:49:13.751Z,90.00
2019-04-29T17:51:43.412Z,89.90
2019-04-29T17:54:15.881Z,90.00
2019-04-29T17:57:26.527Z,90.00
2019-04-29T18:00:10.081Z,90.00
2019-04-29T18:03:00.660Z,89.90
2019-04-29T18:05:54.848Z,89.80
2019-04-29T18:08:28.902Z,89.80
2019-04-29T18:10:59.868Z,90.10
2019-04-29T18:13:35.264Z,89.60
2019-04-29T18:16:09.302Z,89.80
2019-04-29T18:18:53.545Z,89.70
2019-04-29T18:21:56.070Z,89.70
2019-04-29T18:24:40.348Z,89.50
2019-04-29T18:27:15.123Z,89.40
2019-04-29T18:29:45.867Z,89.40
2019-04-29T18:32:15.628Z,89.40
2019-04-29T18:34:45.336Z,89.40
2019-04-29T18:37:15.260Z,89.60
2019-04-29T18:39:53.033Z,89.70
2019-04-29T18:42:23.774Z,89.60
2019-04-29T18:44:57.639Z,89.50
2019-04-29T18:47:27.652Z,89.90
2019-04-29T18:49:56.528Z,89.90
2019-04-29T18:52:28.424Z,89.70
2019-04-29T18:54:57.336Z,89.60
2019-04-29T18:57:30.811Z,89.70
2019-04-29T19:00:04.824Z,89.60
2019-04-29T19:02:44.985Z,89.40
2019-04-29T19:05:17.926Z,89.40
2019-04-29T19:07:54.998Z,89.40
2019-04-29T19:10:19.101Z,89.20
2019-04-29T19:13:00.142Z,89.50
2019-04-29T19:15:27.362Z,89.50
2019-04-29T19:18:01.366Z,89.40
2019-04-29T19:20:27.974Z,89.50
2019-04-29T19:23:05.727Z,89.50
2019-04-29T19:25:28.466Z,89.60
2019-04-29T19:28:11.256Z,89.40
2019-04-29T19:30:30.310Z,89.40
2019-04-29T19:33:00.836Z,89.50
2019-04-29T19:35:36.991Z,89.60
2019-04-29T19:38:02.149Z,89.50
2019-04-29T19:40:40.509Z,89.50
2019-04-29T19:43:02.769Z,89.50
2019-04-29T19:45:33.166Z,89.40
2019-04-29T19:48:02.562Z,89.50
2019-04-29T19:50:32.273Z,89.50
2019-04-29T19:53:05.060Z,89.60
2019-04-29T19:55:41.704Z,89.50
2019-04-29T19:58:07.631Z,89.30
2019-04-29T20:00:43.475Z,89.10
2019-04-29T20:03:21.219Z,89.00
2019-04-29T20:05:53.285Z,89.10
2019-04-29T20:08:43.473Z,88.90
2019-04-29T20:10:58.004Z,88.80
2019-04-29T20:13:31.296Z,88.80
2019-04-29T20:16:22.782Z,88.60
2019-04-29T20:19:17.985Z,88.70
2019-04-29T20:21:46.256Z,88.80
2019-04-29T20:24:17.851Z,88.90
2019-04-29T20:26:47.458Z,88.70
2019-04-29T20:29:17.124Z,88.80
2019-04-29T20:31:56.358Z,88.80
2019-04-29T20:34:28.143Z,88.40
2019-04-29T20:36:56.217Z,88.50
2019-04-29T20:39:26.279Z,88.50
2019-04-29T20:41:56.121Z,88.40
2019-04-29T20:44:25.834Z,88.30
2019-04-29T20:47:15.601Z,88.30
2019-04-29T20:49:30.474Z,88.20
2019-04-29T20:52:13.460Z,88.00
2019-04-29T20:54:41.205Z,88.00
2019-04-29T20:57:17.453Z,88.00
2019-04-29T20:59:46.034Z,88.50
2019-04-29T21:02:29.471Z,88.10
2019-04-29T21:04:46.531Z,88.10
2019-04-29T21:07:16.958Z,88.10
2019-04-29T21:09:52.577Z,88.00
2019-04-29T21:12:40.513Z,87.80
2019-04-29T21:15:16.371Z,88.00
2019-04-29T21:17:46.070Z,87.80
2019-04-29T21:20:16.610Z,87.70
2019-04-29T21:22:47.166Z,87.70
2019-04-29T21:25:16.644Z,87.50
2019-04-29T21:27:48.486Z,87.40
2019-04-29T21:30:19.949Z,87.40
2019-04-29T21:32:50.649Z,87.50
2019-04-29T21:35:40.071Z,87.30
2019-04-29T21:38:39.417Z,87.40
2019-04-29T21:41:15.506Z,87.30
2019-04-29T21:43:46.966Z,87.30
2019-04-29T21:46:18.070Z,87.30
2019-04-29T21:48:48.815Z,87.40
2019-04-29T21:51:18.200Z,87.40
2019-04-29T21:53:47.553Z,87.30
2019-04-29T21:56:18.122Z,87.30
2019-04-29T21:58:47.617Z,87.20
2019-04-29T22:01:18.371Z,87.20
2019-04-29T22:03:47.903Z,86.80
2019-04-29T22:06:17.450Z,86.70
2019-04-29T22:08:55.845Z,86.30
2019-04-29T22:11:25.858Z,85.90
2019-04-29T22:13:55.555Z,85.70
2019-04-29T22:16:25.142Z,85.60
2019-04-29T22:18:56.166Z,85.10
2019-04-29T22:21:26.008Z,85.00
2019-04-29T22:23:57.774Z,84.90
2019-04-29T22:26:27.195Z,84.60
2019-04-29T22:29:03.274Z,84.60
2019-04-29T22:31:33.977Z,84.40
2019-04-29T22:34:00.610Z,84.40
2019-04-29T22:36:30.996Z,84.30
2019-04-29T22:39:00.394Z,84.20
2019-04-29T22:42:00.744Z,84.10
2019-04-29T22:44:30.172Z,83.90
2019-04-29T22:46:59.516Z,83.70
2019-04-29T22:49:30.908Z,83.30
2019-04-29T22:52:02.416Z,82.80
2019-04-29T22:54:32.069Z,82.50
2019-04-29T22:57:05.696Z,82.30
2019-04-29T22:59:35.415Z,81.90
2019-04-29T23:02:06.864Z,81.50
2019-04-29T23:04:36.150Z,81.10
2019-04-29T23:07:06.692Z,80.70
2019-04-29T23:09:46.367Z,80.50
2019-04-29T23:12:18.424Z,80.10
2019-04-29T23:14:45.743Z,79.90
2019-04-29T23:17:25.489Z,79.60
2019-04-29T23:19:59.078Z,79.00
2019-04-29T23:22:56.795Z,78.40
2019-04-29T23:25:32.478Z,77.70
2019-04-29T23:28:01.806Z,77.10
2019-04-29T23:30:31.075Z,76.70
2019-04-29T23:33:03.759Z,76.50
2019-04-29T23:35:34.860Z,76.20
2019-04-29T23:38:09.162Z,76.00
2019-04-29T23:40:35.021Z,75.90
2019-04-29T23:43:06.180Z,75.80
2019-04-29T23:45:35.690Z,75.80
2019-04-29T23:48:05.612Z,75.80
2019-04-29T23:50:35.900Z,75.80
2019-04-29T23:53:05.815Z,76.00
2019-04-29T23:55:35.684Z,75.90
2019-04-29T23:58:42.363Z,75.80
